Time,TemperatureF,DewpointF,PressureIn,WindDirection,WindDirectionDegrees,WindSpeedMPH,WindSpeedGustMPH,Humidity,HourlyPrecipIn,Conditions,Clouds,dailyrainin,SoftwareType,DateUTC
2013-09-07 00:14:00,61.0,58.0,30.22,ENE,61,0.0,0.0,90,0.00,,,0.00,,2013-09-07 04:14:00,
2013-09-07 00:24:00,61.0,58.0,30.22,ENE,71,0.0,0.0,90,0.00,,,0.00,,2013-09-07 04:24:00,
2013-09-07 00:43:00,62.0,59.0,30.22,ENE,72,0.0,0.0,90,0.00,,,0.00,,2013-09-07 04:43:00,
2013-09-07 00:54:00,61.0,58.0,30.22,East,87,0.0,0.0,90,0.00,,,0.00,,2013-09-07 04:54:00,
2013-09-07 01:13:00,61.0,58.0,30.22,East,89,0.0,0.0,91,0.00,,,0.00,,2013-09-07 05:13:00,
2013-09-07 01:23:00,61.0,58.0,30.22,East,89,0.0,0.0,90,0.00,,,0.00,,2013-09-07 05:23:00,
2013-09-07 01:52:00,60.0,58.0,30.22,East,89,0.0,0.0,92,0.00,,,0.00,,2013-09-07 05:52:00,
2013-09-07 02:13:00,60.0,58.0,30.22,East,89,0.0,0.0,92,0.00,,,0.00,,2013-09-07 06:13:00,
2013-09-07 02:22:00,60.0,58.0,30.22,East,89,0.0,0.0,92,0.00,,,0.00,,2013-09-07 06:22:00,
2013-09-07 02:42:00,61.0,57.0,30.21,SE,131,0.0,0.0,88,0.00,,,0.00,,2013-09-07 06:42:00,
2013-09-07 02:52:00,61.0,58.0,30.21,ESE,105,0.0,0.0,89,0.00,,,0.00,,2013-09-07 06:52:00,
2013-09-07 03:12:00,61.0,58.0,30.20,ENE,75,0.0,0.0,89,0.00,,,0.00,,2013-09-07 07:12:00,
2013-09-07 03:22:00,60.0,57.0,30.20,ENE,72,0.0,0.0,89,0.00,,,0.00,,2013-09-07 07:22:00,
2013-09-07 03:42:00,60.0,57.0,30.20,East,79,0.0,0.0,89,0.00,,,0.00,,2013-09-07 07:42:00,
2013-09-07 03:52:00,60.0,57.0,30.20,East,79,0.0,0.0,89,0.00,,,0.00,,2013-09-07 07:52:00,
2013-09-07 04:12:00,60.0,57.0,30.20,East,79,0.0,0.0,89,0.00,,,0.00,,2013-09-07 08:12:00,
2013-09-07 04:22:00,60.0,57.0,30.20,East,79,0.0,0.0,89,0.00,,,0.00,,2013-09-07 08:22:00,
2013-09-07 04:43:00,60.0,57.0,30.20,East,79,0.0,0.0,90,0.00,,,0.00,,2013-09-07 08:43:00,
2013-09-07 04:53:00,61.0,58.0,30.20,East,79,0.0,0.0,90,0.00,,,0.00,,2013-09-07 08:53:00,
2013-09-07 05:12:00,60.0,57.0,30.20,East,79,0.0,0.0,90,0.00,,,0.00,,2013-09-07 09:12:00,
2013-09-07 05:21:00,61.0,58.0,30.20,East,94,0.0,0.0,89,0.00,,,0.00,,2013-09-07 09:21:00,
2013-09-07 05:42:00,60.0,57.0,30.20,East,101,0.0,0.0,89,0.00,,,0.00,,2013-09-07 09:42:00,
2013-09-07 05:52:00,60.0,57.0,30.20,ESE,110,0.0,0.0,90,0.00,,,0.00,,2013-09-07 09:52:00,
2013-09-07 06:11:00,59.0,56.0,30.19,SSE,166,0.0,0.0,91,0.00,,,0.00,,2013-09-07 10:11:00,
2013-09-07 06:21:00,59.0,56.0,30.20,WSW,238,0.0,0.0,91,0.00,,,0.00,,2013-09-07 10:21:00,
2013-09-07 06:41:00,59.0,57.0,30.20,SSE,148,0.0,1.0,92,0.00,,,0.00,,2013-09-07 10:41:00,
2013-09-07 06:51:00,58.0,56.0,30.20,ESE,110,0.0,0.0,93,0.00,,,0.00,,2013-09-07 10:51:00,
2013-09-07 07:13:00,59.0,57.0,30.20,ESE,110,0.0,1.0,93,0.00,,,0.00,,2013-09-07 11:13:00,
2013-09-07 07:23:00,58.0,56.0,30.21,ESE,103,0.0,0.0,93,0.00,,,0.00,,2013-09-07 11:23:00,
2013-09-07 07:43:00,58.0,56.0,30.21,East,82,0.0,1.0,94,0.00,,,0.00,,2013-09-07 11:43:00,
2013-09-07 07:52:00,57.0,55.0,30.22,East,82,0.0,1.0,94,0.00,,,0.00,,2013-09-07 11:52:00,
2013-09-07 08:12:00,58.0,57.0,30.22,East,82,0.0,0.0,95,0.00,,,0.00,,2013-09-07 12:12:00,
2013-09-07 08:22:00,58.0,57.0,30.22,East,82,0.0,0.0,95,0.00,,,0.00,,2013-09-07 12:22:00,
2013-09-07 08:42:00,58.0,57.0,30.22,East,82,0.0,0.0,95,0.00,,,0.00,,2013-09-07 12:42:00,
2013-09-07 08:52:00,59.0,58.0,30.22,East,82,0.0,0.0,95,0.00,,,0.00,,2013-09-07 12:52:00,
2013-09-07 09:12:00,59.0,57.0,30.22,WSW,242,0.0,1.0,94,0.00,,,0.00,,2013-09-07 13:12:00,
2013-09-07 09:21:00,59.0,57.0,30.23,West,274,0.0,1.0,94,0.00,,,0.00,,2013-09-07 13:21:00,
2013-09-07 09:52:00,60.0,58.0,30.23,WSW,240,1.0,2.0,93,0.00,,,0.00,,2013-09-07 13:52:00,
2013-09-07 10:11:00,60.0,58.0,30.23,SW,236,1.0,3.0,93,0.00,,,0.00,,2013-09-07 14:11:00,
2013-09-07 10:22:00,60.0,58.0,30.24,WSW,243,1.0,2.0,93,0.00,,,0.00,,2013-09-07 14:22:00,
2013-09-07 10:52:00,61.0,59.0,30.24,WSW,249,1.0,3.0,92,0.00,,,0.00,,2013-09-07 14:52:00,
2013-09-07 11:11:00,60.0,58.0,30.24,WSW,239,2.0,3.0,92,0.00,,,0.00,,2013-09-07 15:11:00,
2013-09-07 11:23:00,62.0,59.0,30.24,WSW,252,3.0,4.0,91,0.00,,,0.00,,2013-09-07 15:23:00,
2013-09-07 11:44:00,63.0,60.0,30.24,WSW,239,1.0,3.0,90,0.00,,,0.00,,2013-09-07 15:44:00,
2013-09-07 11:54:00,63.0,59.0,30.24,WSW,240,2.0,5.0,88,0.00,,,0.00,,2013-09-07 15:54:00,
2013-09-07 12:24:00,66.0,61.0,30.22,SW,229,3.0,4.0,83,0.00,,,0.00,,2013-09-07 16:24:00,
2013-09-07 12:43:00,67.0,61.0,30.22,NW,304,2.0,5.0,81,0.00,,,0.00,,2013-09-07 16:43:00,
2013-09-07 12:53:00,69.0,62.0,30.22,SW,235,1.0,5.0,79,0.00,,,0.00,,2013-09-07 16:53:00,
2013-09-07 13:12:00,69.0,62.0,30.21,WSW,238,4.0,5.0,79,0.00,,,0.00,,2013-09-07 17:12:00,
2013-09-07 13:24:00,70.0,63.0,30.21,East,84,2.0,5.0,78,0.00,,,0.00,,2013-09-07 17:24:00,
2013-09-07 13:43:00,71.0,62.0,30.20,SW,235,4.0,6.0,73,0.00,,,0.00,,2013-09-07 17:43:00,
2013-09-07 13:52:00,71.0,63.0,30.20,West,271,4.0,8.0,75,0.00,,,0.00,,2013-09-07 17:52:00,
2013-09-07 14:13:00,70.0,63.0,30.20,WSW,248,1.0,5.0,78,0.00,,,0.00,,2013-09-07 18:13:00,
2013-09-07 14:22:00,70.0,62.0,30.19,WSW,245,4.0,5.0,75,0.00,,,0.00,,2013-09-07 18:22:00,
2013-09-07 14:43:00,73.0,63.0,30.19,WSW,243,3.0,6.0,72,0.00,,,0.00,,2013-09-07 18:43:00,
2013-09-07 14:52:00,72.0,64.0,30.18,WSW,239,3.0,6.0,76,0.00,,,0.00,,2013-09-07 18:52:00,
2013-09-07 15:11:00,71.0,62.0,30.18,WSW,242,5.0,6.0,73,0.00,,,0.00,,2013-09-07 19:11:00,
2013-09-07 15:22:00,72.0,64.0,30.17,SW,236,1.0,4.0,75,0.00,,,0.00,,2013-09-07 19:22:00,
2013-09-07 15:52:00,72.0,64.0,30.16,NW,310,4.0,6.0,75,0.00,,,0.00,,2013-09-07 19:52:00,
2013-09-07 16:12:00,74.0,65.0,30.16,SW,217,3.0,6.0,74,0.00,,,0.00,,2013-09-07 20:12:00,
2013-09-07 16:22:00,72.0,64.0,30.16,WSW,245,3.0,7.0,75,0.00,,,0.00,,2013-09-07 20:22:00,
2013-09-07 16:53:00,73.0,65.0,30.14,WSW,255,6.0,9.0,75,0.00,,,0.00,,2013-09-07 20:53:00,
2013-09-07 17:12:00,73.0,65.0,30.14,SW,231,4.0,6.0,75,0.00,,,0.00,,2013-09-07 21:12:00,
2013-09-07 17:22:00,72.0,64.0,30.14,WSW,256,4.0,6.0,76,0.00,,,0.00,,2013-09-07 21:22:00,
2013-09-07 17:54:00,70.0,64.0,30.13,WSW,249,3.0,5.0,81,0.00,,,0.00,,2013-09-07 21:54:00,
2013-09-07 18:13:00,69.0,64.0,30.14,WSW,245,3.0,5.0,83,0.00,,,0.00,,2013-09-07 22:13:00,
2013-09-07 18:24:00,69.0,64.0,30.13,WSW,242,1.0,4.0,84,0.00,,,0.00,,2013-09-07 22:24:00,
2013-09-07 18:43:00,71.0,65.0,30.13,WSW,250,2.0,4.0,82,0.00,,,0.00,,2013-09-07 22:43:00,
2013-09-07 18:53:00,70.0,65.0,30.13,WSW,258,0.0,4.0,84,0.00,,,0.00,,2013-09-07 22:53:00,
2013-09-07 19:12:00,69.0,65.0,30.13,WSW,245,2.0,3.0,86,0.00,,,0.00,,2013-09-07 23:12:00,
2013-09-07 19:23:00,69.0,65.0,30.12,WSW,248,2.0,3.0,86,0.00,,,0.00,,2013-09-07 23:23:00,
2013-09-07 19:42:00,69.0,65.0,30.12,WSW,243,3.0,4.0,86,0.00,,,0.00,,2013-09-07 23:42:00,
2013-09-07 19:53:00,68.0,64.0,30.13,WSW,248,2.0,4.0,86,0.00,,,0.00,,2013-09-07 23:53:00,
2013-09-07 20:11:00,67.0,63.0,30.13,WSW,253,2.0,3.0,88,0.00,,,0.00,,2013-09-08 00:11:00,
2013-09-07 20:22:00,66.0,63.0,30.14,SW,231,0.0,2.0,89,0.00,,,0.00,,2013-09-08 00:22:00,
2013-09-07 20:42:00,65.0,62.0,30.14,WSW,245,0.0,3.0,90,0.00,,,0.00,,2013-09-08 00:42:00,
2013-09-07 20:52:00,65.0,62.0,30.14,WSW,243,0.0,2.0,90,0.00,,,0.00,,2013-09-08 00:52:00,
2013-09-07 21:11:00,65.0,62.0,30.14,SW,214,0.0,1.0,90,0.00,,,0.00,,2013-09-08 01:11:00,
2013-09-07 21:22:00,65.0,62.0,30.14,SW,226,1.0,2.0,90,0.00,,,0.00,,2013-09-08 01:22:00,
2013-09-07 21:42:00,65.0,62.0,30.14,WSW,244,0.0,0.0,90,0.00,,,0.00,,2013-09-08 01:42:00,
2013-09-07 21:52:00,64.0,61.0,30.14,WSW,243,0.0,0.0,91,0.00,,,0.00,,2013-09-08 01:52:00,
2013-09-07 22:12:00,65.0,62.0,30.15,NNE,30,0.0,2.0,89,0.00,,,0.00,,2013-09-08 02:12:00,
2013-09-07 22:23:00,65.0,61.0,30.15,NE,37,2.0,4.0,87,0.00,,,0.00,,2013-09-08 02:23:00,
2013-09-07 22:43:00,65.0,60.0,30.14,NNE,23,1.0,3.0,84,0.00,,,0.00,,2013-09-08 02:43:00,
2013-09-07 22:52:00,64.0,59.0,30.14,NE,36,2.0,3.0,85,0.00,,,0.00,,2013-09-08 02:52:00,
2013-09-07 23:12:00,64.0,59.0,30.15,NNE,22,2.0,4.0,84,0.00,,,0.00,,2013-09-08 03:12:00,
2013-09-07 23:23:00,64.0,59.0,30.15,NNE,23,2.0,4.0,84,0.00,,,0.00,,2013-09-08 03:23:00,
2013-09-07 23:44:00,64.0,59.0,30.14,NNE,25,2.0,3.0,85,0.00,,,0.00,,2013-09-08 03:44:00,
2013-09-07 23:54:00,64.0,60.0,30.14,NE,37,2.0,3.0,86,0.00,,,0.00,,2013-09-08 03:54:00,